Time;durP1;ratioP1;P1;durP2;ratioP2;P2;SDS_P1;SDS_P2;PMS_P1;PMS_P2;Temp;Humidity;BMP_temperature;BMP_pressure;BME280_temperature;BME280_humidity;BME280_pressure;Samples;Min_cycle;Max_cycle;Signal;HPM_P1;HPM_P2
2023/06/21 00:01:27;;;;;;;13.25;12.05;;;;;;;18.61;88.77;101025.25;4984626;28;20031;-80
2023/06/21 00:03:53;;;;;;;13.07;11.68;;;;;;;18.59;88.54;101024.69;4989913;28;20037;-79
2023/06/21 00:06:21;;;;;;;12.88;11.57;;;;;;;18.54;88.58;101019.94;4990556;28;20033;-79
2023/06/21 00:08:48;;;;;;;13.00;11.73;;;;;;;18.49;88.84;101025.31;5033196;23;20106;-79
2023/06/21 00:11:13;;;;;;;13.23;11.82;;;;;;;18.46;88.94;101018.44;5072707;28;20056;-79
2023/06/21 00:13:39;;;;;;;13.25;11.85;;;;;;;18.42;89.15;101020.03;5054577;28;20035;-78
2023/06/21 00:16:04;;;;;;;12.77;11.55;;;;;;;18.40;89.28;101026.78;5070524;28;20033;-78
2023/06/21 00:18:29;;;;;;;13.43;12.02;;;;;;;18.43;89.09;101029.03;5068803;28;20357;-78
2023/06/21 00:20:59;;;;;;;13.25;12.02;;;;;;;18.45;88.96;101024.97;5063108;28;20043;-79
2023/06/21 00:23:24;;;;;;;13.30;12.00;;;;;;;18.40;88.89;101035.81;5052318;28;20021;-79
2023/06/21 00:25:54;;;;;;;12.85;11.55;;;;;;;18.37;89.24;101032.72;5060500;28;20547;-79
2023/06/21 00:28:19;;;;;;;13.50;11.80;;;;;;;18.39;89.26;101039.59;5062805;28;20487;-79
2023/06/21 00:30:45;;;;;;;13.77;11.50;;;;;;;18.35;89.13;101034.88;5073168;28;20020;-79
2023/06/21 00:33:10;;;;;;;13.13;11.82;;;;;;;18.33;89.00;101041.41;5069888;28;20052;-79
2023/06/21 00:35:35;;;;;;;12.63;11.43;;;;;;;18.29;89.23;101040.22;5073136;28;20036;-79
2023/06/21 00:38:01;;;;;;;13.20;11.90;;;;;;;18.23;89.34;101033.03;5072895;28;20028;-79
2023/06/21 00:40:26;;;;;;;12.23;11.02;;;;;;;18.16;89.87;101033.19;5068780;28;20025;-79
2023/06/21 00:42:53;;;;;;;12.73;11.52;;;;;;;18.17;89.85;101032.09;5065823;28;20032;-79
2023/06/21 00:45:18;;;;;;;13.32;12.02;;;;;;;18.16;89.75;101038.63;5037744;28;20024;-79
2023/06/21 00:47:45;;;;;;;12.43;11.23;;;;;;;18.17;89.71;101039.47;5067276;28;20396;-79
2023/06/21 00:50:12;;;;;;;13.13;11.82;;;;;;;18.12;89.70;101039.38;5057576;28;20041;-79
2023/06/21 00:52:38;;;;;;;13.45;12.05;;;;;;;18.02;89.95;101034.53;5036214;28;20036;-79
2023/06/21 00:55:04;;;;;;;13.30;12.02;;;;;;;17.94;90.14;101035.72;5053412;28;20028;-78
2023/06/21 00:57:30;;;;;;;13.18;11.88;;;;;;;17.87;90.49;101035.88;5073118;28;20052;-78
2023/06/21 00:59:55;;;;;;;14.25;12.73;;;;;;;17.94;90.33;101041.16;5054385;28;20028;-79
2023/06/21 01:02:20;;;;;;;16.02;12.25;;;;;;;17.95;90.54;101048.28;5071165;28;20029;-79
2023/06/21 01:04:49;;;;;;;13.73;12.32;;;;;;;17.97;90.28;101046.13;5071285;28;20085;-79
2023/06/21 01:07:29;;;;;;;12.98;11.68;;;;;;;17.93;90.12;101057.72;5051069;28;20024;-79
2023/06/21 01:10:09;;;;;;;13.15;11.75;;;;;;;17.90;90.39;101060.97;5025602;28;20077;-79
2023/06/21 01:13:04;;;;;;;13.40;12.10;;;;;;;17.86;90.47;101049.72;5048584;28;20037;-79
2023/06/21 01:15:32;;;;;;;13.65;12.25;;;;;;;17.78;90.70;101053.63;5042280;28;20501;-79
2023/06/21 01:17:59;;;;;;;13.77;12.40;;;;;;;17.72;91.02;101054.63;5051692;28;20067;-79
2023/06/21 01:20:29;;;;;;;14.98;13.15;;;;;;;17.66;91.05;101059.09;5045349;28;20013;-79
2023/06/21 01:23:38;;;;;;;13.63;12.18;;;;;;;17.64;91.45;101069.44;5042993;28;20057;-79
2023/06/21 01:26:12;;;;;;;14.43;12.93;;;;;;;17.61;91.40;101056.28;5040287;28;20535;-79
2023/06/21 01:28:47;;;;;;;14.60;13.13;;;;;;;17.53;91.29;101073.81;5025926;28;20469;-79
2023/06/21 01:31:15;;;;;;;14.07;12.65;;;;;;;17.58;91.34;101075.81;5039663;28;20033;-79
2023/06/21 01:33:41;;;;;;;13.90;12.60;;;;;;;17.56;91.36;101078.75;5043477;28;20091;-79
2023/06/21 01:36:06;;;;;;;13.65;12.35;;;;;;;17.58;91.44;101084.78;5029200;28;20029;-79
2023/06/21 01:38:32;;;;;;;13.88;12.48;;;;;;;17.55;91.29;101084.44;5046876;28;20029;-79
2023/06/21 01:40:57;;;;;;;14.18;12.02;;;;;;;17.56;91.28;101083.38;5048177;28;20102;-79
2023/06/21 01:43:23;;;;;;;13.48;12.07;;;;;;;17.55;91.25;101092.63;5050612;28;20025;-79
2023/06/21 01:45:48;;;;;;;13.32;12.02;;;;;;;17.47;91.49;101101.16;5047284;28;20035;-79
2023/06/21 01:48:14;;;;;;;14.45;12.95;;;;;;;17.42;91.52;101093.69;5051246;28;20383;-79
2023/06/21 01:50:42;;;;;;;14.55;13.05;;;;;;;17.37;92.13;101094.41;5049124;28;20029;-79
2023/06/21 01:53:10;;;;;;;14.13;12.68;;;;;;;17.38;92.36;101097.97;5049882;28;20076;-79
2023/06/21 01:55:35;;;;;;;14.07;12.57;;;;;;;17.43;92.12;101101.63;5052398;28;20033;-79
2023/06/21 01:58:00;;;;;;;14.23;12.38;;;;;;;17.48;91.92;101091.91;5040475;28;20033;-79
2023/06/21 02:00:26;;;;;;;14.60;13.10;;;;;;;17.50;91.49;101097.94;5047344;28;20396;-79
2023/06/21 02:02:56;;;;;;;14.90;13.40;;;;;;;17.41;91.61;101095.59;5030832;28;20041;-79
2023/06/21 02:05:21;;;;;;;14.35;12.77;;;;;;;17.52;91.72;101098.53;5047205;28;20029;-79
2023/06/21 02:07:47;;;;;;;13.85;12.55;;;;;;;17.52;91.48;101102.09;5032536;28;20021;-79
2023/06/21 02:10:14;;;;;;;14.68;13.10;;;;;;;17.56;91.28;101100.53;5066670;28;20016;-79
2023/06/21 02:12:40;;;;;;;14.02;12.65;;;;;;;17.54;91.39;101101.84;5075148;28;20032;-78
2023/06/21 02:15:10;;;;;;;15.40;13.80;;;;;;;17.58;91.38;101106.56;5086080;28;20025;-78
2023/06/21 02:17:35;;;;;;;15.00;13.50;;;;;;;17.54;91.29;101107.28;5071962;28;20472;-78
2023/06/21 02:20:05;;;;;;;14.73;13.25;;;;;;;17.42;91.68;101110.84;5068882;28;20026;-79
2023/06/21 02:22:31;;;;;;;15.52;13.98;;;;;;;17.45;91.81;101123.16;5056578;28;20399;-78
2023/06/21 02:24:56;;;;;;;15.43;13.93;;;;;;;17.52;91.90;101118.44;5063755;28;20528;-79
2023/06/21 02:27:21;;;;;;;15.65;14.10;;;;;;;17.46;91.73;101122.09;5071350;28;20483;-79
2023/06/21 02:29:48;;;;;;;16.27;14.57;;;;;;;17.44;92.20;101124.22;5069171;28;20073;-79
2023/06/21 02:32:13;;;;;;;16.88;15.13;;;;;;;17.48;92.24;101121.84;5065715;28;20404;-79
2023/06/21 02:34:39;;;;;;;15.82;13.73;;;;;;;17.56;91.99;101126.94;5071354;28;20038;-79
2023/06/21 02:37:11;;;;;;;15.45;13.85;;;;;;;17.63;91.31;101119.50;5069030;28;20032;-79
2023/06/21 02:39:37;;;;;;;15.00;13.60;;;;;;;17.66;91.08;101108.09;5068409;28;20115;-79
2023/06/21 02:42:06;;;;;;;15.85;14.25;;;;;;;17.61;91.19;101107.16;5059377;28;20362;-79
2023/06/21 02:44:31;;;;;;;16.02;14.43;;;;;;;17.62;91.05;101111.53;5044880;28;20033;-79
2023/06/21 02:46:57;;;;;;;16.63;14.77;;;;;;;17.52;91.25;101114.88;5061932;28;20032;-79
2023/06/21 02:49:22;;;;;;;16.95;15.25;;;;;;;17.49;91.97;101121.63;5065818;28;20475;-79
2023/06/21 02:51:49;;;;;;;16.77;15.15;;;;;;;17.57;91.59;101131.31;5058876;28;20523;-79
2023/06/21 02:54:15;;;;;;;16.45;14.88;;;;;;;17.61;91.56;101134.38;5069375;28;20055;-79
2023/06/21 02:56:42;;;;;;;17.00;15.13;;;;;;;17.53;91.92;101138.31;5061607;28;20037;-79
2023/06/21 02:59:09;;;;;;;16.60;14.90;;;;;;;17.59;91.78;101137.34;5071055;28;20079;-79
2023/06/21 03:01:35;;;;;;;16.35;14.75;;;;;;;17.64;91.16;101139.38;5070056;28;20021;-79
2023/06/21 03:04:00;;;;;;;15.90;14.30;;;;;;;17.62;91.05;101142.34;5071712;28;20063;-79
2023/06/21 03:06:33;;;;;;;16.83;15.13;;;;;;;17.59;91.54;101153.69;5069493;28;20050;-79
2023/06/21 03:08:59;;;;;;;16.88;15.10;;;;;;;17.57;91.14;101155.81;5066880;28;20455;-79
2023/06/21 03:11:25;;;;;;;17.40;15.70;;;;;;;17.57;91.25;101155.81;5070593;28;20525;-79
2023/06/21 03:13:50;;;;;;;16.55;14.95;;;;;;;17.53;91.24;101160.06;5063548;28;20103;-79
2023/06/21 03:16:15;;;;;;;17.35;15.55;;;;;;;17.54;91.48;101169.91;5062163;28;20033;-79
2023/06/21 03:18:41;;;;;;;17.48;15.68;;;;;;;17.56;91.38;101175.94;5065928;28;20104;-79
2023/06/21 03:21:06;;;;;;;18.15;15.68;;;;;;;17.56;91.24;101175.94;5063464;28;20482;-79
2023/06/21 03:23:32;;;;;;;17.15;15.45;;;;;;;17.45;91.67;101169.41;5069403;28;20036;-79
2023/06/21 03:25:57;;;;;;;18.33;16.35;;;;;;;17.35;91.67;101170.00;5067857;28;20035;-79
2023/06/21 03:28:22;;;;;;;18.08;16.17;;;;;;;17.36;92.20;101166.22;5069554;28;20028;-79
2023/06/21 03:30:48;;;;;;;18.88;16.88;;;;;;;17.34;92.16;101173.78;5054703;22;20063;-79
2023/06/21 03:33:13;;;;;;;18.35;16.55;;;;;;;17.40;92.15;101177.44;5032577;28;20040;-79
2023/06/21 03:35:38;;;;;;;18.35;16.40;;;;;;;17.33;92.42;101185.72;5037913;28;20036;-79
2023/06/21 03:38:07;;;;;;;18.08;16.17;;;;;;;17.43;92.08;101188.72;5015871;28;20063;-79
2023/06/21 03:40:32;;;;;;;17.23;15.45;;;;;;;17.50;91.76;101187.75;5031179;28;20079;-79
2023/06/21 03:42:58;;;;;;;18.73;16.55;;;;;;;17.42;91.92;101195.22;5040415;28;20084;-79
2023/06/21 03:45:32;;;;;;;19.13;16.55;;;;;;;17.52;91.66;101201.97;5037727;28;20419;-79
2023/06/21 03:47:59;;;;;;;17.67;15.77;;;;;;;17.61;91.20;101197.00;5039933;28;20040;-79
2023/06/21 03:50:24;;;;;;;17.33;15.60;;;;;;;17.64;90.97;101194.66;5110171;22;20092;-79
2023/06/21 03:52:50;;;;;;;17.90;16.08;;;;;;;17.68;90.59;101195.00;4991206;28;20031;-79
2023/06/21 03:55:16;;;;;;;18.25;16.08;;;;;;;17.56;91.01;101203.16;5178612;23;20057;-79
2023/06/21 03:57:41;;;;;;;18.60;16.75;;;;;;;17.42;92.11;101205.25;5072417;28;20024;-78
2023/06/21 04:00:10;;;;;;;17.23;15.43;;;;;;;17.50;91.95;101209.53;5072991;28;20033;-79
2023/06/21 04:02:35;;;;;;;17.48;15.77;;;;;;;17.55;91.26;101217.84;5073068;28;20032;-79
2023/06/21 04:05:00;;;;;;;17.75;16.02;;;;;;;17.48;91.74;101223.38;5066167;28;20052;-79
2023/06/21 04:07:26;;;;;;;17.02;15.15;;;;;;;17.56;91.91;101224.94;5065520;28;20325;-78
2023/06/21 04:09:51;;;;;;;17.38;15.57;;;;;;;17.66;91.73;101218.91;5072884;28;20036;-79
2023/06/21 04:12:17;;;;;;;17.67;15.80;;;;;;;17.78;90.82;101230.63;5067856;28;20028;-79
2023/06/21 04:14:42;;;;;;;18.30;16.60;;;;;;;17.67;91.03;101237.72;5069886;28;20036;-78
2023/06/21 04:17:07;;;;;;;18.67;16.77;;;;;;;17.62;91.24;101242.22;5072710;28;20513;-81
2023/06/21 04:19:33;;;;;;;20.42;17.02;;;;;;;17.56;91.29;101236.63;5073043;28;20032;-78
2023/06/21 04:21:58;;;;;;;20.05;16.30;;;;;;;17.73;91.04;101235.97;5071942;28;20024;-79
2023/06/21 04:24:24;;;;;;;17.45;15.60;;;;;;;17.93;89.82;101237.50;5072071;28;20024;-80
2023/06/21 04:26:49;;;;;;;18.00;16.02;;;;;;;17.84;89.98;101228.84;5073412;28;20020;-79
2023/06/21 04:29:20;;;;;;;17.75;15.90;;;;;;;17.92;89.38;101228.50;5072730;28;20047;-79
2023/06/21 04:31:46;;;;;;;17.20;15.40;;;;;;;17.97;89.42;101223.19;5072286;28;20099;-79
2023/06/21 04:34:11;;;;;;;17.55;15.70;;;;;;;18.07;88.66;101228.06;5072052;28;20048;-79
2023/06/21 04:36:37;;;;;;;17.70;15.90;;;;;;;18.17;88.20;101216.56;5073587;28;20028;-79
2023/06/21 04:39:02;;;;;;;17.73;15.93;;;;;;;18.54;86.45;101224.41;5082409;28;20020;-79
2023/06/21 04:41:28;;;;;;;16.40;14.80;;;;;;;18.63;86.28;101222.97;5191460;22;20066;-79
2023/06/21 04:43:53;;;;;;;16.52;14.98;;;;;;;18.72;85.31;101219.84;5085739;28;20029;-80
2023/06/21 04:46:23;;;;;;;17.70;15.80;;;;;;;19.02;83.85;101221.56;5080096;28;20028;-79
2023/06/21 04:48:48;;;;;;;16.08;14.48;;;;;;;19.30;83.20;101225.31;5084557;28;20039;-79
2023/06/21 04:51:15;;;;;;;15.70;14.20;;;;;;;19.79;80.65;101228.28;5079071;28;20376;-78
2023/06/21 04:53:46;;;;;;;17.05;15.25;;;;;;;20.03;79.00;101219.13;5083957;28;20376;-78
2023/06/21 04:56:12;;;;;;;16.17;14.57;;;;;;;20.00;79.19;101223.16;5084114;28;20429;-77
2023/06/21 04:58:39;;;;;;;17.50;15.43;;;;;;;19.78;80.16;101243.03;5080882;28;20388;-78
2023/06/21 05:01:05;;;;;;;18.48;16.67;;;;;;;19.05;83.08;101234.72;5087250;28;20025;-78
2023/06/21 05:03:32;;;;;;;18.92;17.02;;;;;;;18.80;84.64;101238.56;5085707;28;20020;-78
2023/06/21 05:05:59;;;;;;;19.10;17.10;;;;;;;18.87;84.29;101250.19;5075916;28;20031;-78
2023/06/21 05:08:24;;;;;;;17.98;16.17;;;;;;;18.92;84.32;101257.63;5093283;28;20028;-78
2023/06/21 05:10:49;;;;;;;19.00;17.00;;;;;;;18.62;85.46;101259.50;5079490;28;20462;-78
2023/06/21 05:13:15;;;;;;;18.73;16.83;;;;;;;18.82;84.86;101263.72;5073574;28;20078;-78
2023/06/21 05:15:40;;;;;;;19.10;17.08;;;;;;;18.93;84.17;101265.56;5086820;28;20036;-78
2023/06/21 05:18:05;;;;;;;20.02;17.92;;;;;;;18.68;85.05;101262.34;5078958;28;20357;-78
2023/06/21 05:20:31;;;;;;;20.95;18.63;;;;;;;18.36;87.38;101268.19;5088329;28;20024;-78
2023/06/21 05:23:00;;;;;;;20.20;17.98;;;;;;;18.39;87.80;101264.97;5082878;28;20119;-77
2023/06/21 05:25:25;;;;;;;20.13;18.02;;;;;;;18.86;84.96;101270.34;5080070;28;20032;-78
2023/06/21 05:27:50;;;;;;;23.42;19.90;;;;;;;18.56;84.96;101265.91;5079834;28;20031;-78
2023/06/21 05:30:16;;;;;;;23.77;20.00;;;;;;;18.67;85.51;101260.69;5079694;28;20032;-78
2023/06/21 05:32:41;;;;;;;22.50;19.80;;;;;;;18.75;85.48;101274.75;5092188;28;20042;-78
2023/06/21 05:35:07;;;;;;;21.65;19.35;;;;;;;18.92;84.77;101279.44;5080023;28;20081;-78
2023/06/21 05:37:32;;;;;;;24.05;20.00;;;;;;;19.10;83.90;101281.19;5086412;28;20016;-78
2023/06/21 05:40:02;;;;;;;24.42;20.73;;;;;;;19.40;82.56;101299.22;5091632;28;20390;-78
2023/06/21 05:42:29;;;;;;;23.38;19.70;;;;;;;19.97;80.29;101291.97;5085832;28;20035;-79
2023/06/21 05:44:54;;;;;;;24.33;20.00;;;;;;;19.91;79.28;101293.00;5085201;28;20024;-79
2023/06/21 05:47:19;;;;;;;22.15;19.80;;;;;;;20.38;77.14;101300.78;5080717;28;20402;-78
2023/06/21 05:49:45;;;;;;;23.35;19.92;;;;;;;20.48;77.56;101299.25;5090035;28;20032;-78
2023/06/21 05:52:10;;;;;;;22.80;20.02;;;;;;;20.53;76.64;101300.19;5089092;28;20028;-78
2023/06/21 05:54:41;;;;;;;23.10;20.35;;;;;;;21.09;75.40;101293.75;5090999;28;20383;-78
2023/06/21 05:57:07;;;;;;;24.85;21.50;;;;;;;21.36;73.60;101299.22;5077016;28;20464;-78
2023/06/21 05:59:32;;;;;;;23.67;20.60;;;;;;;21.51;72.80;101300.47;5086231;28;20031;-78
2023/06/21 06:01:57;;;;;;;24.35;21.52;;;;;;;21.42;71.98;101302.03;5086476;28;20072;-78
2023/06/21 06:04:24;;;;;;;23.73;21.15;;;;;;;22.22;69.88;101304.91;5083555;28;20349;-78
2023/06/21 06:06:49;;;;;;;28.00;22.13;;;;;;;22.46;68.42;101304.50;5086168;28;20028;-78
2023/06/21 06:09:15;;;;;;;24.67;21.30;;;;;;;22.72;67.57;101301.88;5081651;28;21475;-78
2023/06/21 06:11:40;;;;;;;24.40;21.90;;;;;;;23.45;65.89;101306.50;5087092;28;20028;-78
2023/06/21 06:14:05;;;;;;;24.00;21.05;;;;;;;23.89;63.56;101318.88;5079292;28;20024;-78
2023/06/21 06:16:39;;;;;;;28.90;23.92;;;;;;;23.54;64.41;101316.94;5075991;28;20045;-78
2023/06/21 06:19:05;;;;;;;26.42;23.73;;;;;;;23.51;63.45;101328.47;5088331;28;20039;-78
2023/06/21 06:21:30;;;;;;;23.30;20.90;;;;;;;24.07;62.25;101335.94;5062105;28;20391;-78
2023/06/21 06:23:56;;;;;;;29.42;22.98;;;;;;;23.05;64.53;101335.50;5086454;28;20024;-78
2023/06/21 06:26:24;;;;;;;26.30;23.55;;;;;;;22.97;64.99;101338.75;5087935;28;20028;-78
2023/06/21 06:28:50;;;;;;;26.58;23.73;;;;;;;23.25;64.77;101355.91;5085680;28;20024;-78
2023/06/21 06:31:28;;;;;;;28.40;24.17;;;;;;;24.05;62.68;101358.22;5082318;28;20031;-78
2023/06/21 06:33:53;;;;;;;23.63;21.08;;;;;;;24.82;58.67;101345.41;5081188;28;20056;-78
2023/06/21 06:36:19;;;;;;;27.17;23.70;;;;;;;24.89;58.70;101356.94;5079910;28;20353;-78
2023/06/21 06:38:48;;;;;;;26.05;23.45;;;;;;;25.46;56.69;101356.66;5085744;28;20032;-78
2023/06/21 06:41:14;;;;;;;25.80;23.00;;;;;;;26.20;55.01;101355.00;5088200;28;20048;-78
2023/06/21 06:43:39;;;;;;;25.45;22.80;;;;;;;26.58;52.82;101349.63;5084036;28;20028;-78
2023/06/21 06:46:05;;;;;;;26.38;23.67;;;;;;;25.71;56.45;101361.16;5073124;28;20491;-78
2023/06/21 06:48:30;;;;;;;25.23;22.77;;;;;;;25.90;54.96;101356.91;5082040;28;20040;-78
2023/06/21 06:50:58;;;;;;;24.38;22.00;;;;;;;26.08;55.15;101358.13;5062170;28;20037;-78
2023/06/21 06:53:23;;;;;;;28.67;25.77;;;;;;;26.41;53.64;101369.41;5082139;28;20457;-78
2023/06/21 06:55:52;;;;;;;30.05;26.77;;;;;;;26.23;54.18;101365.47;5087329;28;20026;-78
2023/06/21 06:58:18;;;;;;;28.58;25.88;;;;;;;27.00;50.32;101378.44;5085988;28;20476;-78
2023/06/21 07:00:44;;;;;;;30.80;27.75;;;;;;;25.70;58.01;101378.81;5093043;28;20035;-78
2023/06/21 07:03:09;;;;;;;27.88;25.10;;;;;;;27.51;50.05;101376.13;5087350;28;20029;-78
2023/06/21 07:05:35;;;;;;;29.13;26.30;;;;;;;25.92;54.34;101376.75;5092150;28;20020;-78
2023/06/21 07:08:02;;;;;;;24.92;22.52;;;;;;;27.87;48.95;101372.78;5089274;28;20028;-77
2023/06/21 07:10:29;;;;;;;24.83;22.17;;;;;;;27.27;49.66;101370.63;5088291;28;20472;-77
2023/06/21 07:12:54;;;;;;;23.20;21.00;;;;;;;27.19;49.62;101374.84;5089126;28;20130;-77
2023/06/21 07:15:19;;;;;;;26.33;23.90;;;;;;;25.40;54.54;101372.38;5082588;28;20033;-77
2023/06/21 07:17:45;;;;;;;25.08;22.73;;;;;;;25.41;55.44;101385.06;5086330;28;20475;-77
2023/06/21 07:20:11;;;;;;;24.83;22.30;;;;;;;26.78;51.14;101381.72;5088242;28;20024;-77
2023/06/21 07:22:36;;;;;;;22.80;20.52;;;;;;;26.71;51.70;101387.59;5084029;28;20061;-77
2023/06/21 07:25:01;;;;;;;26.20;23.70;;;;;;;25.48;55.48;101390.28;5075069;28;20487;-77
2023/06/21 07:27:27;;;;;;;25.08;22.80;;;;;;;25.40;55.58;101383.41;5087266;28;20020;-77
2023/06/21 07:29:53;;;;;;;25.67;23.27;;;;;;;25.12;56.67;101387.69;5083333;28;20024;-77
2023/06/21 07:32:18;;;;;;;21.95;19.92;;;;;;;27.42;49.12;101383.41;5077997;28;20032;-77
2023/06/21 07:34:43;;;;;;;24.15;21.85;;;;;;;28.32;48.47;101390.84;5083127;28;20032;-77
2023/06/21 07:37:09;;;;;;;23.90;21.80;;;;;;;27.45;50.50;101388.34;5087447;28;20016;-77
2023/06/21 07:39:34;;;;;;;23.92;21.77;;;;;;;28.06;47.91;101394.88;5070190;28;20288;-77
2023/06/21 07:42:04;;;;;;;25.48;23.08;;;;;;;27.45;50.22;101400.19;5078516;28;20415;-77
2023/06/21 07:44:32;;;;;;;24.30;21.95;;;;;;;27.14;50.91;101397.06;5079792;28;20105;-77
2023/06/21 07:46:57;;;;;;;22.48;20.48;;;;;;;28.21;48.40;101399.34;5088747;28;20090;-77
2023/06/21 07:49:25;;;;;;;20.67;18.80;;;;;;;29.35;45.54;101411.00;5086834;28;20476;-77
2023/06/21 07:51:51;;;;;;;24.05;21.75;;;;;;;28.70;46.44;101410.09;5087369;28;20126;-76
2023/06/21 07:54:16;;;;;;;25.00;22.70;;;;;;;26.64;50.28;101410.03;5089243;28;20494;-77
2023/06/21 07:56:42;;;;;;;20.88;18.98;;;;;;;26.57;50.44;101404.03;5084332;28;20036;-77
2023/06/21 07:59:07;;;;;;;23.33;21.20;;;;;;;26.06;52.33;101410.00;5086292;28;20498;-77
2023/06/21 08:01:36;;;;;;;22.92;20.85;;;;;;;25.58;54.22;101405.94;5089565;28;20383;-76
2023/06/21 08:04:01;;;;;;;23.52;21.42;;;;;;;25.19;55.97;101412.19;5083094;28;20036;-76
2023/06/21 08:06:27;;;;;;;24.88;22.40;;;;;;;24.49;57.38;101409.06;5081460;28;20020;-77
2023/06/21 08:08:54;;;;;;;25.83;23.42;;;;;;;24.19;58.21;101420.91;5084210;28;20115;-76
2023/06/21 08:11:19;;;;;;;24.58;22.30;;;;;;;24.56;58.04;101422.53;5088063;28;20044;-76
2023/06/21 08:13:45;;;;;;;24.63;22.10;;;;;;;24.50;58.66;101416.22;5081636;28;20793;-76
2023/06/21 08:16:10;;;;;;;26.42;23.83;;;;;;;24.86;58.19;101420.84;5078901;28;20033;-76
2023/06/21 08:18:36;;;;;;;24.25;22.08;;;;;;;25.13;57.78;101425.16;5077518;28;20035;-76
2023/06/21 08:21:01;;;;;;;23.17;21.02;;;;;;;26.02;53.21;101426.31;5082805;28;20391;-76
2023/06/21 08:23:29;;;;;;;24.40;22.00;;;;;;;25.94;54.56;101433.28;5082704;28;20108;-76
2023/06/21 08:25:55;;;;;;;24.08;21.85;;;;;;;26.22;53.63;101433.63;5088231;28;20450;-75
2023/06/21 08:28:21;;;;;;;23.50;21.15;;;;;;;25.98;54.15;101433.50;5069391;28;20032;-75
2023/06/21 08:30:46;;;;;;;25.05;22.83;;;;;;;25.36;55.39;101431.13;5084118;28;20050;-75
2023/06/21 08:33:12;;;;;;;23.65;21.50;;;;;;;24.75;56.86;101427.47;5083524;28;20474;-75
2023/06/21 08:35:37;;;;;;;23.27;21.02;;;;;;;25.18;56.50;101441.69;5086024;28;20028;-75
2023/06/21 08:38:03;;;;;;;22.83;20.63;;;;;;;25.55;54.33;101445.94;5084735;28;20020;-76
2023/06/21 08:40:32;;;;;;;21.15;19.25;;;;;;;26.24;54.48;101449.91;5088606;28;20040;-75
2023/06/21 08:43:00;;;;;;;25.20;22.65;;;;;;;26.03;55.73;101439.00;5092814;28;20034;-75
2023/06/21 08:45:26;;;;;;;23.10;21.00;;;;;;;25.15;56.23;101447.75;5088102;28;20036;-75
2023/06/21 08:47:51;;;;;;;23.45;21.05;;;;;;;24.75;57.00;101455.84;5087286;28;20044;-78
2023/06/21 08:50:20;;;;;;;21.00;19.00;;;;;;;25.94;53.71;101457.28;5080235;28;20081;-75
2023/06/21 08:52:47;;;;;;;21.58;19.50;;;;;;;26.30;52.97;101452.31;5090593;28;20032;-77
2023/06/21 08:55:14;;;;;;;21.38;19.38;;;;;;;25.75;55.61;101449.69;5092373;28;20114;-76
2023/06/21 08:57:51;;;;;;;17.48;15.70;;;;;;;26.70;54.89;101443.94;5091754;28;20024;-76
2023/06/21 09:00:20;;;;;;;18.65;16.70;;;;;;;27.59;50.27;101444.56;5058007;28;20074;-76
2023/06/21 09:02:54;;;;;;;17.17;15.38;;;;;;;28.63;47.64;101445.66;5072357;28;20463;-76
2023/06/21 09:05:29;;;;;;;14.70;13.18;;;;;;;30.41;41.57;101459.84;5072073;28;20032;-76
2023/06/21 09:07:56;;;;;;;13.27;12.07;;;;;;;30.59;41.17;101448.84;5083085;28;20027;-76
2023/06/21 09:10:21;;;;;;;14.02;12.63;;;;;;;30.05;41.94;101458.78;5092105;28;20070;-76
2023/06/21 09:12:48;;;;;;;14.10;12.73;;;;;;;29.45;43.11;101452.41;5048190;28;20074;-76
2023/06/21 09:15:14;;;;;;;12.65;11.38;;;;;;;29.76;43.32;101451.69;5070986;28;20426;-76
2023/06/21 09:17:39;;;;;;;11.95;10.75;;;;;;;30.51;40.69;101447.66;5082586;28;20020;-76
2023/06/21 09:20:15;;;;;;;11.85;10.75;;;;;;;30.80;38.46;101460.22;5069335;28;20490;-76
2023/06/21 09:22:40;;;;;;;11.73;10.52;;;;;;;30.22;39.42;101455.31;5080646;28;20050;-76
2023/06/21 09:25:06;;;;;;;14.10;12.63;;;;;;;28.64;43.58;101461.16;5088142;28;20513;-76
2023/06/21 09:27:32;;;;;;;12.40;11.15;;;;;;;28.53;44.70;101453.06;5081314;28;20032;-76
2023/06/21 09:29:57;;;;;;;12.63;11.32;;;;;;;29.86;41.28;101460.88;5040456;28;20024;-76
2023/06/21 09:32:22;;;;;;;11.50;10.50;;;;;;;30.73;39.02;101454.28;5083432;28;20421;-75
2023/06/21 09:34:51;;;;;;;12.80;10.27;;;;;;;30.62;40.60;101456.56;5089913;28;20111;-76
2023/06/21 09:37:35;;;;;;;13.02;11.82;;;;;;;32.56;35.53;101454.78;5056210;28;20348;-76
2023/06/21 09:40:01;;;;;;;12.70;11.40;;;;;;;31.61;38.12;101464.53;5086293;28;20038;-76
2023/06/21 09:42:26;;;;;;;13.02;11.68;;;;;;;32.12;36.51;101466.00;5089271;28;20445;-76
2023/06/21 09:44:52;;;;;;;12.63;11.38;;;;;;;29.74;39.70;101461.47;5077247;28;20033;-76
2023/06/21 09:47:18;;;;;;;12.38;11.25;;;;;;;29.50;40.40;101468.09;5067454;28;20032;-76
2023/06/21 09:49:47;;;;;;;12.80;11.50;;;;;;;30.16;40.11;101472.44;5082706;28;20521;-75
2023/06/21 09:52:13;;;;;;;12.23;11.02;;;;;;;31.19;37.34;101464.16;5089189;28;20072;-75
2023/06/21 09:54:44;;;;;;;10.90;9.90;;;;;;;32.44;35.10;101467.47;5082859;28;20032;-75
2023/06/21 09:57:10;;;;;;;14.43;12.93;;;;;;;31.87;35.71;101466.53;5085386;28;20228;-75
2023/06/21 09:59:36;;;;;;;12.05;10.95;;;;;;;32.20;34.38;101468.78;5087342;28;20478;-75
2023/06/21 10:02:02;;;;;;;12.95;11.85;;;;;;;32.54;36.09;101468.25;5079718;28;20039;-75
2023/06/21 10:04:27;;;;;;;17.10;15.50;;;;;;;32.30;36.96;101475.22;5087399;28;20032;-75
2023/06/21 10:06:55;;;;;;;13.18;11.85;;;;;;;31.88;35.74;101475.69;5070443;28;20028;-75
2023/06/21 10:09:21;;;;;;;12.18;11.02;;;;;;;32.49;34.85;101480.41;5077641;28;20024;-75
2023/06/21 10:11:49;;;;;;;10.63;9.63;;;;;;;33.04;33.47;101481.50;5086039;28;20080;-75
2023/06/21 10:14:25;;;;;;;11.60;10.60;;;;;;;32.86;33.85;101474.38;5079066;28;20028;-75
2023/06/21 10:16:55;;;;;;;10.57;9.57;;;;;;;32.89;33.48;101477.34;5077796;28;20047;-76
2023/06/21 10:19:22;;;;;;;10.30;8.18;;;;;;;33.70;32.52;101477.34;5070485;28;20865;-75
2023/06/21 10:22:09;;;;;;;9.93;9.10;;;;;;;34.04;30.84;101490.56;5070708;28;20062;-75
2023/06/21 10:24:42;;;;;;;9.90;9.00;;;;;;;33.38;32.32;101485.28;5085716;28;20395;-75
2023/06/21 10:27:08;;;;;;;11.48;10.38;;;;;;;34.01;31.18;101487.28;5073924;28;20035;-75
2023/06/21 10:29:34;;;;;;;12.60;10.80;;;;;;;32.76;33.51;101479.16;5051540;28;20039;-75
2023/06/21 10:32:01;;;;;;;11.20;9.95;;;;;;;31.65;34.80;101481.41;5078494;28;20032;-75
2023/06/21 10:34:28;;;;;;;11.38;10.30;;;;;;;30.89;35.94;101488.84;5085640;28;20491;-75
2023/06/21 10:36:59;;;;;;;10.32;9.20;;;;;;;31.08;35.63;101482.22;5051412;28;20060;-75
2023/06/21 10:39:26;;;;;;;7.65;6.78;;;;;;;31.77;33.38;101480.78;5050822;28;20467;-75
2023/06/21 10:41:51;;;;;;;8.52;7.70;;;;;;;31.75;33.33;101488.66;5053802;28;20311;-75
2023/06/21 10:44:17;;;;;;;8.25;7.47;;;;;;;30.45;35.94;101487.81;5071821;28;20429;-75
2023/06/21 10:46:42;;;;;;;7.95;7.18;;;;;;;31.46;34.34;101484.47;5069615;22;20498;-75
2023/06/21 10:49:08;;;;;;;9.80;8.82;;;;;;;31.37;35.17;101481.69;5003178;28;20545;-75
2023/06/21 10:51:36;;;;;;;9.60;8.02;;;;;;;32.71;32.97;101484.91;4994340;28;20041;-75
2023/06/21 10:54:07;;;;;;;7.63;6.78;;;;;;;32.20;33.78;101485.50;5002887;28;20034;-75
2023/06/21 10:56:34;;;;;;;8.00;7.30;;;;;;;32.91;33.75;101499.28;5000683;28;20030;-75
2023/06/21 10:58:59;;;;;;;8.18;7.38;;;;;;;32.86;32.95;101496.69;4999266;28;20031;-75
2023/06/21 11:01:24;;;;;;;8.30;7.07;;;;;;;31.94;32.95;101501.44;4991478;28;20038;-75
2023/06/21 11:03:50;;;;;;;6.35;5.75;;;;;;;31.48;34.08;101507.25;4989205;28;20385;-75
2023/06/21 11:06:29;;;;;;;7.78;7.07;;;;;;;31.21;35.20;101494.41;4995185;28;20035;-75
2023/06/21 11:08:55;;;;;;;8.13;6.93;;;;;;;30.30;36.17;101509.28;4992666;28;20113;-75